Terminal Aerodrome Forecast
Issued by NWS Cleveland, OH

Home | Current Version | Previous Version | Text Only | Print | Product List | Glossary On
Versions: 1 2 3 4 5 6 7 8 9 10 11 12 13 14 15 16 17 18
785
FTUS41 KCLE 091810 AAA
TAFTOL
TAF AMD
KTOL 091810Z 0918/1018 29012KT P6SM -SN OVC012
      TEMPO 0918/0920 5SM -SN BR OVC012
     FM092000 29012KT 6SM HZ OVC015
      TEMPO 0920/0924 4SM -SHSN OVC008
     FM100000 27012G18KT P6SM OVC025
     FM100800 28012KT 4SM -SN OVC015
     FM101400 29014KT P6SM OVC035=

USA.gov is the U.S. government's official web portal to all federal, state and local government web resources and services.